createdAt,value
2019-02-02T00:00:46.413Z,34.97
2019-02-02T00:03:16.910Z,38.77
2019-02-02T00:05:55.628Z,37.83
2019-02-02T00:08:31.274Z,41.97
2019-02-02T00:11:00.922Z,37.07
2019-02-02T00:13:29.791Z,46.07
2019-02-02T00:16:09.343Z,39.43
2019-02-02T00:18:44.865Z,40.63
2019-02-02T00:21:13.996Z,44.33
2019-02-02T00:23:43.332Z,39.23
2019-02-02T00:26:16.379Z,37.17
2019-02-02T00:28:47.550Z,40.07
2019-02-02T00:31:22.197Z,38.23
2019-02-02T00:33:50.601Z,38.00
2019-02-02T00:36:19.548Z,38.83
2019-02-02T00:39:11.198Z,39.57
2019-02-02T00:41:40.473Z,37.63
2019-02-02T00:44:09.417Z,44.13
2019-02-02T00:49:25.629Z,44.17
2019-02-02T00:51:57.100Z,41.97
2019-02-02T00:54:35.098Z,43.43
2019-02-02T00:57:14.682Z,43.93
2019-02-02T00:59:45.332Z,40.50
2019-02-02T01:02:14.276Z,41.70
2019-02-02T01:04:46.616Z,40.67
2019-02-02T01:07:15.637Z,45.37
2019-02-02T01:15:15.587Z,43.30
2019-02-02T01:17:54.610Z,46.67
2019-02-02T01:20:29.100Z,45.20
2019-02-02T01:22:58.690Z,43.10
2019-02-02T01:25:52.688Z,42.60
2019-02-02T01:28:05.804Z,47.23
2019-02-02T01:30:36.232Z,41.23
2019-02-02T01:33:06.133Z,40.00
2019-02-02T01:35:35.422Z,40.80
2019-02-02T01:38:12.048Z,40.43
2019-02-02T01:40:40.918Z,43.00
2019-02-02T01:43:11.490Z,41.83
2019-02-02T01:46:13.931Z,42.17
2019-02-02T01:48:43.556Z,42.23
2019-02-02T01:51:14.619Z,38.23
2019-02-02T01:53:43.939Z,38.93
2019-02-02T01:56:16.071Z,38.30
2019-02-02T01:58:54.462Z,40.07
2019-02-02T02:01:35.725Z,40.03
2019-02-02T02:04:06.001Z,43.37
2019-02-02T02:06:43.360Z,40.33
2019-02-02T02:09:13.000Z,37.83
2019-02-02T02:11:42.226Z,40.53
2019-02-02T02:14:11.188Z,37.87
2019-02-02T02:16:40.171Z,38.70
2019-02-02T02:19:13.109Z,40.13
2019-02-02T02:21:42.351Z,39.87
2019-02-02T02:24:26.184Z,40.47
2019-02-02T02:26:58.471Z,40.67
2019-02-02T02:29:27.670Z,40.63
2019-02-02T02:31:56.861Z,38.23
2019-02-02T02:35:01.825Z,38.87
2019-02-02T02:37:30.771Z,40.20
2019-02-02T02:39:59.885Z,39.63
2019-02-02T02:42:48.799Z,37.43
2019-02-02T02:45:17.668Z,41.53
2019-02-02T02:47:48.802Z,40.77
2019-02-02T02:50:25.994Z,39.83
2019-02-02T02:53:00.948Z,38.37
2019-02-02T02:55:29.868Z,39.00
2019-02-02T02:57:59.130Z,40.50
2019-02-02T03:00:41.789Z,39.77
2019-02-02T03:03:12.865Z,41.00
2019-02-02T03:05:42.293Z,40.93
2019-02-02T03:08:14.158Z,42.30
2019-02-02T03:10:43.416Z,40.90
2019-02-02T03:13:13.256Z,41.17
2019-02-02T03:15:42.455Z,41.23
2019-02-02T03:18:15.743Z,39.17
2019-02-02T03:21:07.485Z,39.53
2019-02-02T03:23:18.564Z,39.93
2019-02-02T03:25:53.032Z,41.87
2019-02-02T03:28:22.914Z,40.43
2019-02-02T03:31:08.433Z,37.97
2019-02-02T03:33:42.065Z,38.83
2019-02-02T03:36:27.439Z,39.20
2019-02-02T03:38:56.550Z,37.83
2019-02-02T03:41:25.595Z,39.40
2019-02-02T03:43:55.316Z,42.10
2019-02-02T03:46:24.333Z,38.57
2019-02-02T03:48:53.291Z,37.87
2019-02-02T03:51:22.361Z,39.47
2019-02-02T03:53:51.551Z,40.63
2019-02-02T03:56:24.973Z,36.57
2019-02-02T03:59:14.358Z,36.57
2019-02-02T04:01:44.377Z,36.00
2019-02-02T04:04:13.582Z,38.53
2019-02-02T04:06:45.795Z,42.83
2019-02-02T04:09:14.826Z,36.60
2019-02-02T04:11:45.556Z,35.37
2019-02-02T04:14:18.634Z,37.73
2019-02-02T04:16:47.756Z,38.30
2019-02-02T04:19:19.275Z,38.73
2019-02-02T04:21:48.624Z,35.70
2019-02-02T04:24:28.219Z,36.83
2019-02-02T04:26:59.056Z,35.83
2019-02-02T04:29:28.221Z,35.90
2019-02-02T04:31:57.927Z,33.67
2019-02-02T04:34:26.972Z,36.37
2019-02-02T04:36:56.055Z,35.63
2019-02-02T04:39:25.723Z,37.03
2019-02-02T04:41:54.960Z,34.97
2019-02-02T04:44:24.179Z,32.23
2019-02-02T04:46:53.221Z,34.17
2019-02-02T04:52:20.850Z,33.93
2019-02-02T04:54:57.260Z,34.07
2019-02-02T04:57:41.438Z,32.33
2019-02-02T05:00:15.635Z,33.50
2019-02-02T05:03:00.000Z,32.73
2019-02-02T05:05:35.256Z,34.23
2019-02-02T05:08:04.290Z,32.47
2019-02-02T05:10:33.131Z,31.10
2019-02-02T05:13:02.039Z,31.77
2019-02-02T05:15:32.033Z,33.20
2019-02-02T05:18:01.335Z,29.27
2019-02-02T05:20:32.353Z,31.30
2019-02-02T05:23:09.055Z,29.50
2019-02-02T05:25:38.924Z,29.23
2019-02-02T05:28:15.304Z,31.43
2019-02-02T05:30:44.417Z,29.87
2019-02-02T05:33:13.349Z,30.97
2019-02-02T05:35:45.236Z,29.93
2019-02-02T05:38:16.624Z,27.17
2019-02-02T05:40:46.063Z,31.90
2019-02-02T05:43:15.307Z,28.07
2019-02-02T05:45:44.353Z,27.37
2019-02-02T05:48:13.691Z,27.73
2019-02-02T05:50:42.558Z,27.27
2019-02-02T05:53:11.785Z,27.73
2019-02-02T05:55:41.959Z,27.07
2019-02-02T05:58:25.842Z,26.90
2019-02-02T06:00:56.169Z,27.93
2019-02-02T06:03:30.428Z,27.10
2019-02-02T06:06:00.056Z,27.60
2019-02-02T06:08:29.545Z,24.00
2019-02-02T06:10:58.802Z,25.97
2019-02-02T06:13:27.945Z,25.13
2019-02-02T06:15:56.926Z,23.83
2019-02-02T06:18:26.011Z,24.23
2019-02-02T06:21:01.169Z,23.23
2019-02-02T06:23:33.564Z,24.90
2019-02-02T06:26:20.150Z,23.17
2019-02-02T06:28:49.483Z,23.17
2019-02-02T06:31:20.489Z,21.73
2019-02-02T06:33:55.234Z,22.57
2019-02-02T06:36:26.787Z,21.70
2019-02-02T06:38:55.934Z,22.77
2019-02-02T06:41:25.492Z,21.37
2019-02-02T06:46:44.526Z,20.43
2019-02-02T06:49:17.910Z,22.57
2019-02-02T06:51:53.704Z,20.60
2019-02-02T06:54:24.997Z,21.63
2019-02-02T06:57:02.954Z,21.30
2019-02-02T06:59:32.076Z,20.73
2019-02-02T07:02:03.401Z,17.57
2019-02-02T07:04:32.702Z,18.23
2019-02-02T07:07:03.532Z,18.63
2019-02-02T07:09:32.937Z,18.10
2019-02-02T07:12:04.634Z,18.47
2019-02-02T07:22:19.148Z,16.57
2019-02-02T07:24:55.850Z,15.97
2019-02-02T07:27:24.810Z,15.60
2019-02-02T07:30:01.168Z,15.07
2019-02-02T07:32:49.406Z,16.00
2019-02-02T07:35:18.768Z,17.57
2019-02-02T07:37:50.751Z,17.30
2019-02-02T07:40:23.212Z,14.33
2019-02-02T07:42:52.220Z,14.13
2019-02-02T07:45:23.527Z,15.60
2019-02-02T07:47:52.591Z,16.63
2019-02-02T07:52:50.008Z,14.83
2019-02-02T07:55:19.711Z,15.87
2019-02-02T07:58:00.699Z,15.13
2019-02-02T08:00:40.921Z,15.37
2019-02-02T08:03:11.174Z,13.20
2019-02-02T08:05:44.328Z,13.97
2019-02-02T08:08:17.037Z,15.60
2019-02-02T08:10:48.600Z,20.67
2019-02-02T08:13:24.876Z,16.47
2019-02-02T08:15:59.910Z,15.63
2019-02-02T08:18:34.269Z,16.40
2019-02-02T08:26:26.407Z,17.30
2019-02-02T08:28:56.485Z,17.70
2019-02-02T08:37:19.822Z,17.70
2019-02-02T08:42:46.456Z,26.40
2019-02-02T08:45:22.011Z,21.40
2019-02-02T08:50:39.092Z,22.63
2019-02-02T08:53:11.650Z,21.17
2019-02-02T08:58:43.017Z,20.00
2019-02-02T09:01:35.869Z,17.67
2019-02-02T09:04:17.623Z,15.40
2019-02-02T09:07:01.933Z,17.03
2019-02-02T09:09:30.882Z,19.90
2019-02-02T09:34:29.327Z,18.03
2019-02-02T09:36:58.607Z,17.40
2019-02-02T09:39:27.875Z,15.00
2019-02-02T09:41:56.853Z,15.47
2019-02-02T09:44:35.593Z,23.70
2019-02-02T09:47:04.811Z,16.43
2019-02-02T09:49:33.937Z,16.27
2019-02-02T09:52:11.839Z,20.13
2019-02-02T09:54:43.544Z,16.43
2019-02-02T09:57:13.221Z,16.07
2019-02-02T09:59:42.725Z,15.77
2019-02-02T10:05:12.812Z,15.77
2019-02-02T10:07:58.290Z,13.03
2019-02-02T10:10:29.547Z,12.93
2019-02-02T10:13:00.458Z,15.33
2019-02-02T10:15:29.952Z,14.63
2019-02-02T10:17:59.467Z,18.00
2019-02-02T10:20:34.600Z,20.67
2019-02-02T10:23:07.492Z,24.10
2019-02-02T10:25:36.523Z,23.03
2019-02-02T10:28:05.915Z,23.07
2019-02-02T10:30:43.210Z,25.57
2019-02-02T10:33:14.767Z,24.73
2019-02-02T10:35:43.970Z,28.43
2019-02-02T10:38:12.877Z,30.70
2019-02-02T10:40:41.887Z,30.17
2019-02-02T10:43:11.372Z,29.07
2019-02-02T10:45:40.502Z,26.03
2019-02-02T10:48:11.138Z,26.80
2019-02-02T10:50:53.560Z,27.97
2019-02-02T10:53:24.165Z,26.00
2019-02-02T10:55:53.052Z,24.63
2019-02-02T10:58:24.497Z,24.93
2019-02-02T11:00:53.375Z,23.77
2019-02-02T11:03:28.255Z,24.17
2019-02-02T11:05:57.605Z,23.57
2019-02-02T11:08:31.123Z,21.57
2019-02-02T11:11:00.187Z,23.77
2019-02-02T11:13:30.179Z,22.60
2019-02-02T11:16:08.429Z,21.67
2019-02-02T11:18:40.654Z,21.90
2019-02-02T11:21:09.650Z,21.13
2019-02-02T11:23:39.252Z,20.57
2019-02-02T11:26:08.417Z,18.67
2019-02-02T11:28:38.935Z,18.33
2019-02-02T11:31:35.075Z,18.17
2019-02-02T11:34:06.357Z,17.10
2019-02-02T11:36:53.096Z,17.13
2019-02-02T11:39:22.410Z,16.80
2019-02-02T11:44:27.350Z,15.40
2019-02-02T11:46:57.975Z,15.37
2019-02-02T11:49:37.344Z,16.60
2019-02-02T11:52:06.567Z,14.47
2019-02-02T11:54:35.674Z,15.30
2019-02-02T11:57:05.408Z,14.00
2019-02-02T11:59:40.260Z,13.90
2019-02-02T12:02:14.584Z,12.93
2019-02-02T12:05:00.053Z,13.90
2019-02-02T12:07:29.047Z,12.60
2019-02-02T12:09:58.115Z,13.43
2019-02-02T12:12:28.395Z,12.87
2019-02-02T12:14:57.256Z,13.10
2019-02-02T12:17:26.103Z,13.53
2019-02-02T12:19:55.343Z,11.40
2019-02-02T12:22:24.635Z,14.23
2019-02-02T12:24:55.320Z,10.67
2019-02-02T12:27:31.762Z,11.77
2019-02-02T12:30:12.465Z,18.30
2019-02-02T12:32:44.266Z,15.40
2019-02-02T12:35:17.247Z,15.20
2019-02-02T12:37:46.558Z,13.93
2019-02-02T12:40:15.742Z,14.30
2019-02-02T12:42:56.484Z,14.27
2019-02-02T12:45:43.217Z,14.90
2019-02-02T12:48:17.643Z,13.87
2019-02-02T12:50:49.156Z,14.20
2019-02-02T12:53:19.763Z,14.27
2019-02-02T12:55:48.863Z,16.40
2019-02-02T12:58:18.032Z,16.10
2019-02-02T13:00:57.678Z,15.73
2019-02-02T13:03:33.128Z,15.10
2019-02-02T13:06:03.971Z,13.27
2019-02-02T13:08:32.931Z,13.30
2019-02-02T13:11:07.502Z,17.83
2019-02-02T13:13:36.798Z,12.83
2019-02-02T13:16:05.828Z,15.10
2019-02-02T13:18:44.739Z,12.33
2019-02-02T13:21:21.366Z,13.00
2019-02-02T13:23:53.601Z,12.57
2019-02-02T13:26:25.458Z,14.80
2019-02-02T13:28:56.382Z,13.47
2019-02-02T13:31:27.568Z,13.37
2019-02-02T13:34:04.820Z,15.03
2019-02-02T13:36:33.833Z,14.37
2019-02-02T13:39:04.362Z,13.60
2019-02-02T13:41:33.846Z,14.27
2019-02-02T13:44:02.753Z,13.03
2019-02-02T13:46:32.882Z,16.40
2019-02-02T13:49:02.022Z,13.77
2019-02-02T13:51:33.588Z,14.73
2019-02-02T13:54:10.587Z,16.10
2019-02-02T13:56:49.958Z,17.23
2019-02-02T13:59:22.650Z,14.90
2019-02-02T14:01:51.931Z,14.70
2019-02-02T14:04:22.558Z,14.43
2019-02-02T14:06:51.961Z,17.63
2019-02-02T14:09:22.795Z,15.27
2019-02-02T14:11:52.939Z,15.17
2019-02-02T14:14:24.978Z,15.23
2019-02-02T14:17:03.357Z,15.53
2019-02-02T14:19:36.364Z,18.27
2019-02-02T14:24:56.698Z,18.53
2019-02-02T14:27:27.723Z,15.73
2019-02-02T14:29:56.732Z,16.57
2019-02-02T14:32:26.005Z,17.13
2019-02-02T14:34:54.939Z,16.77
2019-02-02T14:37:38.651Z,18.13
2019-02-02T14:40:30.760Z,19.77
2019-02-02T14:43:01.093Z,18.13
2019-02-02T14:45:31.914Z,19.03
2019-02-02T14:48:02.645Z,18.83
2019-02-02T14:50:56.986Z,17.97
2019-02-02T14:53:27.586Z,20.73
2019-02-02T14:55:59.919Z,20.93
2019-02-02T14:58:28.904Z,21.83
2019-02-02T15:00:58.240Z,21.27
2019-02-02T15:03:26.200Z,19.43
2019-02-02T15:05:59.648Z,22.63
2019-02-02T15:08:29.020Z,20.93
2019-02-02T15:11:01.598Z,20.63
2019-02-02T15:13:38.815Z,26.03
2019-02-02T15:16:11.920Z,23.30
2019-02-02T15:18:41.434Z,25.77
2019-02-02T15:21:10.516Z,23.60
2019-02-02T15:23:57.204Z,22.07
2019-02-02T15:26:33.899Z,25.57
2019-02-02T15:29:03.960Z,25.60
2019-02-02T15:31:32.999Z,27.10
2019-02-02T15:34:08.110Z,27.17
2019-02-02T15:36:39.541Z,26.70
2019-02-02T15:39:19.231Z,25.80
2019-02-02T15:42:08.604Z,26.03
2019-02-02T15:44:38.095Z,27.37
2019-02-02T15:47:08.870Z,29.13
2019-02-02T15:49:38.264Z,29.93
2019-02-02T15:52:15.476Z,28.53
2019-02-02T15:54:45.792Z,28.67
2019-02-02T15:57:19.423Z,25.97
2019-02-02T15:59:46.288Z,28.57
2019-02-02T16:02:34.885Z,26.07
2019-02-02T16:05:16.566Z,30.03
2019-02-02T16:07:47.379Z,28.90
2019-02-02T16:10:37.167Z,28.60
2019-02-02T16:15:47.948Z,31.10
2019-02-02T16:20:52.720Z,30.87
2019-02-02T16:23:39.495Z,35.10
2019-02-02T16:26:08.857Z,32.07
2019-02-02T16:28:38.010Z,30.47
2019-02-02T16:31:12.009Z,30.07
2019-02-02T16:34:01.159Z,33.53
2019-02-02T16:36:20.783Z,32.57
2019-02-02T16:38:50.186Z,33.13
2019-02-02T16:41:21.133Z,33.63
2019-02-02T16:43:53.526Z,33.43
2019-02-02T16:46:30.587Z,30.77
2019-02-02T16:49:07.958Z,36.33
2019-02-02T16:51:37.207Z,34.07
2019-02-02T16:54:06.664Z,33.83
2019-02-02T16:56:36.086Z,37.83
2019-02-02T16:59:05.875Z,37.60
2019-02-02T17:01:40.340Z,35.73
2019-02-02T17:04:15.783Z,36.87
2019-02-02T17:06:46.031Z,37.80
2019-02-02T17:09:37.079Z,36.70
2019-02-02T17:12:07.350Z,37.10
2019-02-02T17:14:36.897Z,35.33
2019-02-02T17:20:15.335Z,36.23
2019-02-02T17:22:44.696Z,37.97
2019-02-02T17:25:16.177Z,37.33
2019-02-02T17:28:01.657Z,37.83
2019-02-02T17:30:35.344Z,38.13
2019-02-02T17:33:06.926Z,37.87
2019-02-02T17:35:38.259Z,37.47
2019-02-02T17:38:09.506Z,39.57
2019-02-02T17:40:45.667Z,38.27
2019-02-02T17:43:35.004Z,37.37
2019-02-02T17:46:15.413Z,36.57
2019-02-02T17:48:52.078Z,37.90
2019-02-02T17:51:40.745Z,37.13
2019-02-02T17:54:09.887Z,36.93
2019-02-02T17:56:39.110Z,37.07
2019-02-02T17:59:09.750Z,38.07
2019-02-02T18:01:41.271Z,35.93
2019-02-02T18:04:12.447Z,39.00
2019-02-02T18:06:42.787Z,37.60
2019-02-02T18:09:11.702Z,37.73
2019-02-02T18:11:46.739Z,36.47
2019-02-02T18:14:17.626Z,35.30
2019-02-02T18:16:50.920Z,34.77
2019-02-02T18:19:19.948Z,36.13
2019-02-02T18:21:50.595Z,33.13
2019-02-02T18:24:19.933Z,33.97
2019-02-02T18:26:51.396Z,33.63
2019-02-02T18:29:30.079Z,32.60
2019-02-02T18:31:58.125Z,32.73
2019-02-02T18:34:50.959Z,32.07
2019-02-02T18:37:12.824Z,30.53
2019-02-02T18:40:13.491Z,34.87
2019-02-02T18:42:14.574Z,31.47
2019-02-02T18:44:44.924Z,33.20
2019-02-02T18:47:14.402Z,31.37
2019-02-02T18:49:49.733Z,32.73
2019-02-02T18:52:19.432Z,32.87
2019-02-02T18:54:48.806Z,31.33
2019-02-02T18:57:32.995Z,31.97
2019-02-02T19:05:39.747Z,31.33
2019-02-02T19:08:09.306Z,33.37
2019-02-02T19:10:50.131Z,31.23
2019-02-02T19:16:12.205Z,30.33
2019-02-02T19:19:01.385Z,30.70
2019-02-02T19:21:34.127Z,30.87
2019-02-02T19:24:09.156Z,32.03
2019-02-02T19:26:41.633Z,30.53
2019-02-02T19:32:35.497Z,29.70
2019-02-02T19:35:20.809Z,30.40
2019-02-02T19:37:41.575Z,30.77
2019-02-02T19:40:25.615Z,29.57
2019-02-02T19:44:43.493Z,30.40
2019-02-02T19:47:21.596Z,30.97
2019-02-02T19:51:43.268Z,28.73
2019-02-02T19:54:18.461Z,26.97
2019-02-02T19:56:48.498Z,28.87
2019-02-02T19:59:19.206Z,26.63
2019-02-02T20:01:54.987Z,28.27
2019-02-02T20:04:26.085Z,27.13
2019-02-02T20:07:14.760Z,26.67
2019-02-02T20:09:50.433Z,26.20
2019-02-02T20:16:34.320Z,26.93
2019-02-02T20:19:05.191Z,28.23
2019-02-02T21:00:45.587Z,23.83
2019-02-02T21:14:28.653Z,21.27
2019-02-02T21:17:16.226Z,22.33
2019-02-02T21:20:13.365Z,25.63
2019-02-02T21:22:56.439Z,22.17
2019-02-02T21:25:35.051Z,21.17
2019-02-02T21:28:15.551Z,25.87
2019-02-02T21:31:07.282Z,26.27
2019-02-02T21:33:39.458Z,23.70
2019-02-02T21:36:11.537Z,23.30
2019-02-02T21:38:41.534Z,22.37
2019-02-02T21:41:18.370Z,20.80
2019-02-02T21:43:52.837Z,24.77
2019-02-02T21:46:24.135Z,20.70
2019-02-02T21:48:55.830Z,22.60
2019-02-02T21:51:32.593Z,22.27
2019-02-02T21:54:27.029Z,25.43
2019-02-02T21:57:03.985Z,24.03
2019-02-02T21:59:34.916Z,24.33
2019-02-02T22:02:05.802Z,26.33
2019-02-02T22:04:35.232Z,26.03
2019-02-02T23:11:32.352Z,42.53
2019-02-02T23:18:08.312Z,42.73
2019-02-02T23:20:44.958Z,43.57
2019-02-02T23:23:34.901Z,45.97
2019-02-02T23:26:03.889Z,45.50
2019-02-02T23:28:33.213Z,45.10
2019-02-02T23:31:02.550Z,46.67
2019-02-02T23:33:31.497Z,44.87
2019-02-02T23:36:00.844Z,46.77
2019-02-02T23:44:23.083Z,46.90
2019-02-02T23:47:14.969Z,44.53
2019-02-02T23:49:44.313Z,45.13
2019-02-02T23:52:16.014Z,48.00
2019-02-02T23:54:46.773Z,45.67
2019-02-02T23:57:18.879Z,43.53
2019-02-02T23:59:47.992Z,44.37
